Flight Track Log - Related Links

Times and Time Zones

All times are in EDT time to prevent confusion due to time zone crossing. See the SWA868 flight status page for this flight to view local times or setup timezone preferences in your user account.

Time Position Orientation Groundspeed Altitude Reporting Facility
EDT Latitude Longitude Course Direction KTS MPH feet Rate Location/Type
Tue 06:53:54 PM 36.1000 -86.6833 180° South 130 150 1,500  Level Nashville TRACON
Tue 06:54:42 PM 36.0667 -86.6833 180° South 181 208 3,500 2,789 Climbing Nashville TRACON
Tue 06:55:48 PM 36.0000 -86.6500 158° South 257 296 6,800 3,000 Climbing Nashville TRACON
Tue 06:56:10 PM 35.9756 -86.6378 158° South 263 303 7,900 3,659 Climbing Memphis Center
Tue 06:57:10 PM 35.9075 -86.5922 152° Southeast 327 376 11,800 3,950 Climbing Memphis Center
Tue 06:58:10 PM 35.8222 -86.5347 151° Southeast 332 382 15,800 3,800 Climbing Memphis Center
Tue 06:59:10 PM 35.7308 -86.4725 151° Southeast 360 414 19,400 3,550 Climbing Memphis Center
Tue 07:00:10 PM 35.6275 -86.4417 166° South 370 426 22,900 3,017 Climbing Memphis Center
Tue 07:02:05 PM 35.4264 -86.4039 171° South 405 466 28,200 2,606 Climbing Atlanta Center
Tue 07:03:05 PM 35.3042 -86.3547 162° South 420 483 30,500 2,150 Climbing Atlanta Center
Tue 07:04:05 PM 35.1867 -86.2878 155° Southeast 444 511 32,500 1,750 Climbing Atlanta Center
Tue 07:05:05 PM 35.0875 -86.2267 153° Southeast 449 517 34,000 1,250 Climbing Atlanta Center
Tue 07:06:05 PM 34.9675 -86.1678 158° South 461 531 35,000 1,600 Climbing Atlanta Center
Tue 07:07:05 PM 34.8475 -86.1167 161° South 461 531 37,200 1,900 Climbing Atlanta Center
Tue 07:08:05 PM 34.7272 -86.0656 161° South 461 531 38,800 1,900 Climbing Atlanta Center
Tue 07:09:05 PM 34.6050 -86.0122 160° South 461 531 41,000 1,050 Climbing Atlanta Center
Tue 07:10:05 PM 34.4847 -85.9642 162° South 461 531 40,900  Descending Atlanta Center
Tue 07:11:05 PM 34.3603 -85.9108 161° South 461 531 41,000 50 Climbing Atlanta Center
Tue 07:12:05 PM 34.2358 -85.8581 161° South 461 531 41,000  Level Atlanta Center
Tue 07:13:05 PM 34.0989 -85.8025 161° South 466 536 41,000  Level Atlanta Center
Tue 07:14:05 PM 33.9908 -85.7600 162° South 461 531 41,000  Level Atlanta Center
Tue 07:15:05 PM 33.8686 -85.7100 161° South 461 531 41,000  Level Atlanta Center
Tue 07:16:05 PM 33.7439 -85.6575 161° South 461 531 41,000  Level Atlanta Center
Tue 07:17:05 PM 33.6194 -85.6056 161° South 466 536 41,000  Level Atlanta Center
Tue 07:18:05 PM 33.4928 -85.5533 161° South 472 543 41,000  Level Atlanta Center
Tue 07:19:05 PM 33.3578 -85.4961 161° South 472 543 41,000  Level Atlanta Center
Tue 07:20:05 PM 33.2311 -85.4444 161° South 477 549 41,000  Level Atlanta Center
Tue 07:21:05 PM 33.1064 -85.3953 162° South 482 555 41,000  Level Atlanta Center
Tue 07:22:05 PM 32.9964 -85.3442 159° South 477 549 41,000  Level Atlanta Center
Tue 07:23:05 PM 32.8694 -85.2903 160° South 477 549 41,000  Level Atlanta Center
Tue 07:24:05 PM 32.7511 -85.2417 161° South 477 549 41,000  Level Atlanta Center
Tue 07:25:05 PM 32.6200 -85.1881 161° South 482 555 41,000  Level Atlanta Center
Tue 07:26:05 PM 32.4911 -85.1372 162° South 482 555 41,000  Level Atlanta Center
Tue 07:27:05 PM 32.3642 -85.0864 161° South 482 555 41,000  Level Atlanta Center
Tue 07:28:05 PM 32.2247 -85.0333 162° South 482 555 41,000  Level Atlanta Center
Tue 07:29:05 PM 32.0936 -84.9828 162° South 477 549 41,000  Level Atlanta Center
Tue 07:29:44 PM 32.0100 -84.9458 159° South 479 551 41,000  Level Jacksonville Center
Tue 07:30:44 PM 31.8814 -84.8964 162° South 497 572 41,000  Level Jacksonville Center
Tue 07:31:44 PM 31.7694 -84.8525 162° South 486 559 41,000  Level Jacksonville Center
Tue 07:32:44 PM 31.6428 -84.8033 162° South 486 559 41,000  Level Jacksonville Center
Tue 07:33:44 PM 31.5142 -84.7494 160° South 481 554 41,000  Level Jacksonville Center
Tue 07:34:44 PM 31.3875 -84.7008 162° South 481 554 41,000  Level Jacksonville Center
Tue 07:35:44 PM 31.2586 -84.6497 161° South 481 554 41,000  Level Jacksonville Center
Tue 07:36:44 PM 31.1319 -84.5989 161° South 481 554 41,000  Level Jacksonville Center
Tue 07:37:44 PM 31.0033 -84.5506 162° South 481 554 41,000  Level Jacksonville Center
Tue 07:38:44 PM 30.8744 -84.4997 161° South 481 554 41,000  Level Jacksonville Center
Tue 07:39:44 PM 30.7500 -84.4300 154° Southeast 486 559 41,000  Level Jacksonville Center
Tue 07:40:44 PM 30.6256 -84.3556 153° Southeast 492 566 41,000  Level Jacksonville Center
Tue 07:41:44 PM 30.4931 -84.2692 151° Southeast 497 572 41,000  Level Jacksonville Center
Tue 07:42:44 PM 30.3683 -84.1975 154° Southeast 497 572 41,000  Level Jacksonville Center
Tue 07:43:44 PM 30.2481 -84.1236 152° Southeast 492 566 41,000  Level Jacksonville Center
Tue 07:44:44 PM 30.1256 -84.0525 153° Southeast 492 566 41,000  Level Jacksonville Center
Tue 07:45:44 PM 30.0031 -83.9767 152° Southeast 492 566 41,000 -50 Level Jacksonville Center
Tue 07:46:44 PM 29.8825 -83.9058 153° Southeast 492 566 40,900 -1,250 Descending Jacksonville Center
Tue 07:47:44 PM 29.7578 -83.8303 152° Southeast 492 566 38,500 -2,600 Descending Jacksonville Center
Tue 07:48:44 PM 29.6353 -83.7575 153° Southeast 492 566 35,700 -2,850 Descending Jacksonville Center
Tue 07:49:44 PM 29.5125 -83.6825 152° Southeast 492 566 32,800 -2,700 Descending Jacksonville Center
Tue 07:50:44 PM 29.3919 -83.6100 152° Southeast 487 560 30,300 -2,400 Descending Jacksonville Center
Tue 07:51:44 PM 29.2775 -83.5450 154° Southeast 480 552 28,000 -1,700 Descending Jacksonville Center
Tue 07:52:44 PM 29.1711 -83.4800 152° Southeast 456 525 26,900 -1,100 Descending Jacksonville Center
Tue 07:53:44 PM 29.0733 -83.4178 151° Southeast 424 488 25,800 -1,050 Descending Jacksonville Center
Tue 07:54:44 PM 28.9733 -83.3531 150° Southeast 412 474 24,800 -1,350 Descending Jacksonville Center
Tue 07:55:44 PM 28.8797 -83.2956 152° Southeast 402 463 23,100 -1,800 Descending Jacksonville Center
Tue 07:56:44 PM 28.7881 -83.2361 150° Southeast 390 449 21,200 -1,900 Descending Jacksonville Center
Tue 07:58:44 PM 28.6167 -83.1333 152° Southeast 360 414 17,400 -1,935 Descending Tampa TRACON
Tue 07:59:50 PM 28.5167 -83.0667 150° Southeast 354 407 15,200 -2,000 Descending Tampa TRACON
Tue 08:00:50 PM 28.4333 -83.0167 152° Southeast 347 399 13,200 -1,684 Descending Tampa TRACON
Tue 08:01:44 PM 28.3667 -82.9667 147° Southeast 331 381 12,000 -1,158 Descending Tampa TRACON
Tue 08:02:44 PM 28.2833 -82.9167 152° Southeast 315 362 11,000 -476 Descending Tampa TRACON
Tue 08:03:50 PM 28.2000 -82.8667 152° Southeast 316 364 11,000 -524 Level Tampa TRACON
Tue 08:04:50 PM 28.1500 -82.7833 124° Southeast 315 362 9,900 -1,278 Descending Tampa TRACON
Tue 08:05:38 PM 28.1000 -82.7333 139° Southeast 301 346 8,700 -1,588 Descending Tampa TRACON
Tue 08:06:32 PM 28.0500 -82.6667 130° Southeast 292 336 7,200 -1,500 Descending Tampa TRACON
Tue 08:07:38 PM 27.9833 -82.6167 146° Southeast 274 315 5,700 -1,500 Descending Tampa TRACON
Tue 08:08:32 PM 27.9167 -82.6167 180° South 268 308 4,200 -1,339 Descending Tampa TRACON
Tue 08:09:39 PM 27.8500 -82.6000 168° South 220 253 3,000 -1,095 Descending Tampa TRACON
Tue 08:10:38 PM 27.8667 -82.5500 69° East 166 191 1,900 -950 Descending Tampa TRACON
Tue 08:11:39 PM 27.9167 -82.5500 360° North 140 161 1,100 -744 Descending Tampa TRACON
Tue 08:12:39 PM 27.9500 -82.5500 360° North 125 144 400 -700 Descending Tampa TRACON
Tue 08:14:00 PM 27.9755 -82.5332 352° North  Level Estimated
Tue 08:21:00 PM 27.9755 -82.5332 161° South  Level Estimated
Tue 08:22:00 PM 27.9755 -82.5332 161° South  Level Estimated

Login

Don't have an account? Register now (free) for customized features, flight alerts, and more!